sensor_id;sensor_type;location;lat;lon;timestamp;temperature;humidity
2897;DHT22;1458;49.728;9.228;2023-08-20T00:00:13;21.90;99.90
2897;DHT22;1458;49.728;9.228;2023-08-20T00:02:42;21.90;99.90
2897;DHT22;1458;49.728;9.228;2023-08-20T00:05:11;21.80;99.90
2897;DHT22;1458;49.728;9.228;2023-08-20T00:07:39;21.80;99.90
2897;DHT22;1458;49.728;9.228;2023-08-20T00:10:08;21.70;99.90
2897;DHT22;1458;49.728;9.228;2023-08-20T00:12:36;21.70;99.90
2897;DHT22;1458;49.728;9.228;2023-08-20T00:15:06;21.70;99.90
2897;DHT22;1458;49.728;9.228;2023-08-20T00:17:35;21.80;99.90
2897;DHT22;1458;49.728;9.228;2023-08-20T00:20:06;21.70;99.90
2897;DHT22;1458;49.728;9.228;2023-08-20T00:22:38;21.70;99.90
2897;DHT22;1458;49.728;9.228;2023-08-20T00:25:09;21.70;99.90
2897;DHT22;1458;49.728;9.228;2023-08-20T00:27:37;21.80;99.90
2897;DHT22;1458;49.728;9.228;2023-08-20T00:30:07;21.70;99.90
2897;DHT22;1458;49.728;9.228;2023-08-20T00:32:36;21.70;99.90
2897;DHT22;1458;49.728;9.228;2023-08-20T00:35:04;21.70;99.90
2897;DHT22;1458;49.728;9.228;2023-08-20T00:37:33;21.60;99.90
2897;DHT22;1458;49.728;9.228;2023-08-20T00:40:01;21.60;99.90
2897;DHT22;1458;49.728;9.228;2023-08-20T00:42:30;21.60;99.90
2897;DHT22;1458;49.728;9.228;2023-08-20T00:44:58;21.60;99.90
2897;DHT22;1458;49.728;9.228;2023-08-20T00:47:28;21.60;99.90
2897;DHT22;1458;49.728;9.228;2023-08-20T00:49:55;21.50;99.90
2897;DHT22;1458;49.728;9.228;2023-08-20T00:52:23;21.50;99.90
2897;DHT22;1458;49.728;9.228;2023-08-20T00:54:51;21.40;99.90
2897;DHT22;1458;49.728;9.228;2023-08-20T00:57:19;21.40;99.90
2897;DHT22;1458;49.728;9.228;2023-08-20T00:59:47;21.40;99.90
2897;DHT22;1458;49.728;9.228;2023-08-20T01:02:16;21.40;99.90
2897;DHT22;1458;49.728;9.228;2023-08-20T01:04:46;21.50;99.90
2897;DHT22;1458;49.728;9.228;2023-08-20T01:07:18;21.50;99.90
2897;DHT22;1458;49.728;9.228;2023-08-20T01:09:57;21.50;99.90
2897;DHT22;1458;49.728;9.228;2023-08-20T01:12:32;21.50;99.90
2897;DHT22;1458;49.728;9.228;2023-08-20T01:15:01;21.50;99.90
2897;DHT22;1458;49.728;9.228;2023-08-20T01:17:29;21.50;99.90
2897;DHT22;1458;49.728;9.228;2023-08-20T01:20:00;21.40;99.90
2897;DHT22;1458;49.728;9.228;2023-08-20T01:22:51;21.50;99.90
2897;DHT22;1458;49.728;9.228;2023-08-20T01:25:32;21.50;99.90
2897;DHT22;1458;49.728;9.228;2023-08-20T01:28:26;21.50;99.90
2897;DHT22;1458;49.728;9.228;2023-08-20T01:30:55;21.50;99.90
2897;DHT22;1458;49.728;9.228;2023-08-20T01:33:24;21.40;99.90
2897;DHT22;1458;49.728;9.228;2023-08-20T01:35:53;21.40;99.90
2897;DHT22;1458;49.728;9.228;2023-08-20T01:38:21;21.40;99.90
2897;DHT22;1458;49.728;9.228;2023-08-20T01:40:49;21.30;99.90
2897;DHT22;1458;49.728;9.228;2023-08-20T01:43:16;21.20;99.90
2897;DHT22;1458;49.728;9.228;2023-08-20T01:45:46;21.30;99.90
2897;DHT22;1458;49.728;9.228;2023-08-20T01:48:15;21.30;99.90
2897;DHT22;1458;49.728;9.228;2023-08-20T01:50:42;21.20;99.90
2897;DHT22;1458;49.728;9.228;2023-08-20T01:53:11;21.20;99.90
2897;DHT22;1458;49.728;9.228;2023-08-20T01:55:39;21.20;99.90
2897;DHT22;1458;49.728;9.228;2023-08-20T01:58:06;21.10;99.90
2897;DHT22;1458;49.728;9.228;2023-08-20T02:00:34;21.00;99.90
2897;DHT22;1458;49.728;9.228;2023-08-20T02:03:03;20.90;99.90
2897;DHT22;1458;49.728;9.228;2023-08-20T02:05:31;20.90;99.90
2897;DHT22;1458;49.728;9.228;2023-08-20T02:07:58;20.80;99.90
2897;DHT22;1458;49.728;9.228;2023-08-20T02:10:26;20.70;99.90
2897;DHT22;1458;49.728;9.228;2023-08-20T02:12:53;20.70;99.90
2897;DHT22;1458;49.728;9.228;2023-08-20T02:15:20;20.70;99.90
2897;DHT22;1458;49.728;9.228;2023-08-20T02:17:48;20.70;99.90
2897;DHT22;1458;49.728;9.228;2023-08-20T02:20:17;20.60;99.90
2897;DHT22;1458;49.728;9.228;2023-08-20T02:22:44;20.70;99.90
2897;DHT22;1458;49.728;9.228;2023-08-20T02:25:12;20.70;99.90
2897;DHT22;1458;49.728;9.228;2023-08-20T02:27:39;20.70;99.90
2897;DHT22;1458;49.728;9.228;2023-08-20T02:30:07;20.50;99.90
2897;DHT22;1458;49.728;9.228;2023-08-20T02:32:35;20.50;99.90
2897;DHT22;1458;49.728;9.228;2023-08-20T02:35:03;20.60;99.90
2897;DHT22;1458;49.728;9.228;2023-08-20T02:37:33;20.60;99.90
2897;DHT22;1458;49.728;9.228;2023-08-20T02:40:00;20.50;99.90
2897;DHT22;1458;49.728;9.228;2023-08-20T02:42:29;20.50;99.90
2897;DHT22;1458;49.728;9.228;2023-08-20T02:44:56;20.50;99.90
2897;DHT22;1458;49.728;9.228;2023-08-20T02:47:25;20.50;99.90
2897;DHT22;1458;49.728;9.228;2023-08-20T02:49:52;20.50;99.90
2897;DHT22;1458;49.728;9.228;2023-08-20T02:52:20;20.40;99.90
2897;DHT22;1458;49.728;9.228;2023-08-20T02:54:48;20.40;99.90
2897;DHT22;1458;49.728;9.228;2023-08-20T02:57:16;20.40;99.90
2897;DHT22;1458;49.728;9.228;2023-08-20T02:59:43;20.40;99.90
2897;DHT22;1458;49.728;9.228;2023-08-20T03:02:11;20.30;99.90
2897;DHT22;1458;49.728;9.228;2023-08-20T03:04:38;20.30;99.90
2897;DHT22;1458;49.728;9.228;2023-08-20T03:07:06;20.30;99.90
2897;DHT22;1458;49.728;9.228;2023-08-20T03:09:33;20.30;99.90
2897;DHT22;1458;49.728;9.228;2023-08-20T03:12:02;20.30;99.90
2897;DHT22;1458;49.728;9.228;2023-08-20T03:14:30;20.20;99.90
2897;DHT22;1458;49.728;9.228;2023-08-20T03:16:58;20.10;99.90
2897;DHT22;1458;49.728;9.228;2023-08-20T03:19:25;20.10;99.90
2897;DHT22;1458;49.728;9.228;2023-08-20T03:21:52;20.10;99.90
2897;DHT22;1458;49.728;9.228;2023-08-20T03:24:20;20.10;99.90
2897;DHT22;1458;49.728;9.228;2023-08-20T03:26:47;20.00;99.90
2897;DHT22;1458;49.728;9.228;2023-08-20T03:29:16;20.00;99.90
2897;DHT22;1458;49.728;9.228;2023-08-20T03:31:44;20.00;99.90
2897;DHT22;1458;49.728;9.228;2023-08-20T03:34:11;20.00;99.90
2897;DHT22;1458;49.728;9.228;2023-08-20T03:36:39;20.00;99.90
2897;DHT22;1458;49.728;9.228;2023-08-20T03:39:06;20.10;99.90
2897;DHT22;1458;49.728;9.228;2023-08-20T03:41:34;20.00;99.90
2897;DHT22;1458;49.728;9.228;2023-08-20T03:44:01;20.00;99.90
2897;DHT22;1458;49.728;9.228;2023-08-20T03:46:31;19.90;99.90
2897;DHT22;1458;49.728;9.228;2023-08-20T03:48:58;19.80;99.90
2897;DHT22;1458;49.728;9.228;2023-08-20T03:51:27;19.70;99.90
2897;DHT22;1458;49.728;9.228;2023-08-20T03:53:56;19.70;99.90
2897;DHT22;1458;49.728;9.228;2023-08-20T03:56:23;19.70;99.90
2897;DHT22;1458;49.728;9.228;2023-08-20T03:58:51;19.70;99.90
2897;DHT22;1458;49.728;9.228;2023-08-20T04:01:20;19.70;99.90
2897;DHT22;1458;49.728;9.228;2023-08-20T04:03:49;19.70;99.90
2897;DHT22;1458;49.728;9.228;2023-08-20T04:06:16;19.70;99.90
2897;DHT22;1458;49.728;9.228;2023-08-20T04:08:43;19.70;99.90
2897;DHT22;1458;49.728;9.228;2023-08-20T04:11:11;19.70;99.90
2897;DHT22;1458;49.728;9.228;2023-08-20T04:13:39;19.60;99.90
2897;DHT22;1458;49.728;9.228;2023-08-20T04:16:09;19.60;99.90
2897;DHT22;1458;49.728;9.228;2023-08-20T04:18:37;19.60;99.90
2897;DHT22;1458;49.728;9.228;2023-08-20T04:21:06;19.60;99.90
2897;DHT22;1458;49.728;9.228;2023-08-20T04:23:34;19.60;99.90
2897;DHT22;1458;49.728;9.228;2023-08-20T04:26:01;19.50;99.90
2897;DHT22;1458;49.728;9.228;2023-08-20T04:28:29;19.50;99.90
2897;DHT22;1458;49.728;9.228;2023-08-20T04:30:56;19.60;99.90
2897;DHT22;1458;49.728;9.228;2023-08-20T04:33:32;19.60;99.90
2897;DHT22;1458;49.728;9.228;2023-08-20T04:35:59;19.60;99.90
2897;DHT22;1458;49.728;9.228;2023-08-20T04:38:28;19.70;99.90
2897;DHT22;1458;49.728;9.228;2023-08-20T04:40:57;19.70;99.90
2897;DHT22;1458;49.728;9.228;2023-08-20T04:43:25;19.80;99.90
2897;DHT22;1458;49.728;9.228;2023-08-20T04:45:53;19.80;99.90
2897;DHT22;1458;49.728;9.228;2023-08-20T04:48:22;19.80;99.90
2897;DHT22;1458;49.728;9.228;2023-08-20T04:50:49;19.80;99.90
2897;DHT22;1458;49.728;9.228;2023-08-20T04:53:17;19.80;99.90
2897;DHT22;1458;49.728;9.228;2023-08-20T04:55:47;19.90;99.90
2897;DHT22;1458;49.728;9.228;2023-08-20T04:58:15;20.10;99.90
2897;DHT22;1458;49.728;9.228;2023-08-20T05:00:42;20.20;99.90
2897;DHT22;1458;49.728;9.228;2023-08-20T05:03:13;20.30;99.90
2897;DHT22;1458;49.728;9.228;2023-08-20T05:05:40;20.30;99.90
2897;DHT22;1458;49.728;9.228;2023-08-20T05:08:08;20.40;99.90
2897;DHT22;1458;49.728;9.228;2023-08-20T05:10:35;20.30;99.90
2897;DHT22;1458;49.728;9.228;2023-08-20T05:13:04;20.40;99.90
2897;DHT22;1458;49.728;9.228;2023-08-20T05:15:32;20.40;99.90
2897;DHT22;1458;49.728;9.228;2023-08-20T05:18:00;20.50;99.90
2897;DHT22;1458;49.728;9.228;2023-08-20T05:20:28;20.40;99.90
2897;DHT22;1458;49.728;9.228;2023-08-20T05:22:56;20.40;99.90
2897;DHT22;1458;49.728;9.228;2023-08-20T05:25:25;20.50;99.90
2897;DHT22;1458;49.728;9.228;2023-08-20T05:27:52;20.50;99.90
2897;DHT22;1458;49.728;9.228;2023-08-20T05:30:21;20.60;99.90
2897;DHT22;1458;49.728;9.228;2023-08-20T05:32:49;20.70;99.90
2897;DHT22;1458;49.728;9.228;2023-08-20T05:35:16;20.90;99.90
2897;DHT22;1458;49.728;9.228;2023-08-20T05:37:44;21.10;99.90
2897;DHT22;1458;49.728;9.228;2023-08-20T05:40:11;21.20;99.90
2897;DHT22;1458;49.728;9.228;2023-08-20T05:42:39;21.40;99.90
2897;DHT22;1458;49.728;9.228;2023-08-20T05:45:08;21.40;99.90
2897;DHT22;1458;49.728;9.228;2023-08-20T05:47:37;21.60;99.90
2897;DHT22;1458;49.728;9.228;2023-08-20T05:50:07;21.80;99.90
2897;DHT22;1458;49.728;9.228;2023-08-20T05:52:35;22.10;99.90
2897;DHT22;1458;49.728;9.228;2023-08-20T05:55:03;22.10;99.90
2897;DHT22;1458;49.728;9.228;2023-08-20T05:57:33;22.00;99.90
2897;DHT22;1458;49.728;9.228;2023-08-20T06:00:04;22.10;99.90
2897;DHT22;1458;49.728;9.228;2023-08-20T06:02:40;22.10;99.90
2897;DHT22;1458;49.728;9.228;2023-08-20T06:05:09;22.20;99.90
2897;DHT22;1458;49.728;9.228;2023-08-20T06:07:37;22.40;99.90
2897;DHT22;1458;49.728;9.228;2023-08-20T06:10:06;22.60;99.90
2897;DHT22;1458;49.728;9.228;2023-08-20T06:12:34;22.90;99.90
2897;DHT22;1458;49.728;9.228;2023-08-20T06:15:02;23.10;99.90
2897;DHT22;1458;49.728;9.228;2023-08-20T06:17:29;23.30;99.90
2897;DHT22;1458;49.728;9.228;2023-08-20T06:19:58;23.40;99.90
2897;DHT22;1458;49.728;9.228;2023-08-20T06:22:25;23.60;99.90
2897;DHT22;1458;49.728;9.228;2023-08-20T06:24:53;23.70;99.90
2897;DHT22;1458;49.728;9.228;2023-08-20T06:27:20;23.80;99.90
2897;DHT22;1458;49.728;9.228;2023-08-20T06:29:48;23.70;99.90
2897;DHT22;1458;49.728;9.228;2023-08-20T06:32:15;23.70;99.90
2897;DHT22;1458;49.728;9.228;2023-08-20T06:34:42;23.40;99.90
2897;DHT22;1458;49.728;9.228;2023-08-20T06:37:11;23.30;99.90
2897;DHT22;1458;49.728;9.228;2023-08-20T06:39:39;23.00;99.90
2897;DHT22;1458;49.728;9.228;2023-08-20T06:42:06;22.80;99.90
2897;DHT22;1458;49.728;9.228;2023-08-20T06:44:33;22.70;99.90
2897;DHT22;1458;49.728;9.228;2023-08-20T06:47:01;22.70;99.90
2897;DHT22;1458;49.728;9.228;2023-08-20T06:49:29;22.70;99.90
2897;DHT22;1458;49.728;9.228;2023-08-20T06:51:56;22.90;99.90
2897;DHT22;1458;49.728;9.228;2023-08-20T06:54:25;23.00;99.90
2897;DHT22;1458;49.728;9.228;2023-08-20T06:56:52;23.10;99.90
2897;DHT22;1458;49.728;9.228;2023-08-20T06:59:20;23.40;99.90
2897;DHT22;1458;49.728;9.228;2023-08-20T07:01:47;23.80;99.90
2897;DHT22;1458;49.728;9.228;2023-08-20T07:04:14;24.10;99.90
2897;DHT22;1458;49.728;9.228;2023-08-20T07:06:42;24.40;99.90
2897;DHT22;1458;49.728;9.228;2023-08-20T07:09:10;24.40;99.90
2897;DHT22;1458;49.728;9.228;2023-08-20T07:11:39;24.20;99.90
2897;DHT22;1458;49.728;9.228;2023-08-20T07:14:06;24.20;99.90
2897;DHT22;1458;49.728;9.228;2023-08-20T07:16:34;24.30;99.90
2897;DHT22;1458;49.728;9.228;2023-08-20T07:19:02;24.40;99.90
2897;DHT22;1458;49.728;9.228;2023-08-20T07:21:30;24.40;99.90
2897;DHT22;1458;49.728;9.228;2023-08-20T07:23:57;24.30;99.90
2897;DHT22;1458;49.728;9.228;2023-08-20T07:26:24;24.40;99.90
2897;DHT22;1458;49.728;9.228;2023-08-20T07:28:53;24.80;99.90
2897;DHT22;1458;49.728;9.228;2023-08-20T07:31:23;25.10;99.90
2897;DHT22;1458;49.728;9.228;2023-08-20T07:33:54;25.30;99.90
2897;DHT22;1458;49.728;9.228;2023-08-20T07:36:23;25.20;99.90
2897;DHT22;1458;49.728;9.228;2023-08-20T07:38:52;25.30;99.90
2897;DHT22;1458;49.728;9.228;2023-08-20T07:41:20;25.60;99.90
2897;DHT22;1458;49.728;9.228;2023-08-20T07:43:49;25.70;99.90
2897;DHT22;1458;49.728;9.228;2023-08-20T07:46:18;25.80;99.90
2897;DHT22;1458;49.728;9.228;2023-08-20T07:48:45;26.00;99.90
2897;DHT22;1458;49.728;9.228;2023-08-20T07:51:13;26.20;99.40
2897;DHT22;1458;49.728;9.228;2023-08-20T07:53:40;26.30;99.40
2897;DHT22;1458;49.728;9.228;2023-08-20T07:56:08;26.30;98.80
2897;DHT22;1458;49.728;9.228;2023-08-20T07:58:36;26.20;99.40
2897;DHT22;1458;49.728;9.228;2023-08-20T08:01:03;26.00;98.60
2897;DHT22;1458;49.728;9.228;2023-08-20T08:03:32;25.80;99.30
2897;DHT22;1458;49.728;9.228;2023-08-20T08:05:59;25.40;99.50
2897;DHT22;1458;49.728;9.228;2023-08-20T08:08:27;25.20;99.90
2897;DHT22;1458;49.728;9.228;2023-08-20T08:10:54;25.10;99.90
2897;DHT22;1458;49.728;9.228;2023-08-20T08:13:22;25.00;99.90
2897;DHT22;1458;49.728;9.228;2023-08-20T08:15:50;25.00;99.90
2897;DHT22;1458;49.728;9.228;2023-08-20T08:18:18;25.10;99.90
2897;DHT22;1458;49.728;9.228;2023-08-20T08:20:47;25.10;99.90
2897;DHT22;1458;49.728;9.228;2023-08-20T08:23:15;25.30;99.90
2897;DHT22;1458;49.728;9.228;2023-08-20T08:25:43;25.50;99.90
2897;DHT22;1458;49.728;9.228;2023-08-20T08:28:10;25.70;99.80
2897;DHT22;1458;49.728;9.228;2023-08-20T08:30:38;25.80;99.50
2897;DHT22;1458;49.728;9.228;2023-08-20T08:33:06;25.80;99.90
2897;DHT22;1458;49.728;9.228;2023-08-20T08:35:33;25.90;99.80
2897;DHT22;1458;49.728;9.228;2023-08-20T08:38:03;26.00;99.50
2897;DHT22;1458;49.728;9.228;2023-08-20T08:40:31;26.10;99.30
2897;DHT22;1458;49.728;9.228;2023-08-20T08:42:58;26.10;99.60
2897;DHT22;1458;49.728;9.228;2023-08-20T08:45:27;26.20;98.80
2897;DHT22;1458;49.728;9.228;2023-08-20T08:47:55;26.30;97.90
2897;DHT22;1458;49.728;9.228;2023-08-20T08:50:22;26.50;98.20
2897;DHT22;1458;49.728;9.228;2023-08-20T08:52:51;26.70;96.90
2897;DHT22;1458;49.728;9.228;2023-08-20T08:55:21;26.90;94.90
2897;DHT22;1458;49.728;9.228;2023-08-20T08:57:48;26.60;95.40
2897;DHT22;1458;49.728;9.228;2023-08-20T09:00:15;26.70;94.90
2897;DHT22;1458;49.728;9.228;2023-08-20T09:02:43;26.60;95.70
2897;DHT22;1458;49.728;9.228;2023-08-20T09:05:13;26.70;95.60
2897;DHT22;1458;49.728;9.228;2023-08-20T09:07:42;26.80;94.90
2897;DHT22;1458;49.728;9.228;2023-08-20T09:10:10;26.70;95.50
2897;DHT22;1458;49.728;9.228;2023-08-20T09:12:39;26.60;96.20
2897;DHT22;1458;49.728;9.228;2023-08-20T09:15:10;26.50;95.50
2897;DHT22;1458;49.728;9.228;2023-08-20T09:17:40;26.50;95.90
2897;DHT22;1458;49.728;9.228;2023-08-20T09:20:08;26.50;94.90
2897;DHT22;1458;49.728;9.228;2023-08-20T09:22:36;26.60;96.00
2897;DHT22;1458;49.728;9.228;2023-08-20T09:25:04;26.80;96.80
2897;DHT22;1458;49.728;9.228;2023-08-20T09:27:40;26.80;94.60
2897;DHT22;1458;49.728;9.228;2023-08-20T09:30:08;26.90;96.50
2897;DHT22;1458;49.728;9.228;2023-08-20T09:32:36;26.80;95.60
2897;DHT22;1458;49.728;9.228;2023-08-20T09:35:03;26.90;94.50
2897;DHT22;1458;49.728;9.228;2023-08-20T09:37:32;27.00;93.90
2897;DHT22;1458;49.728;9.228;2023-08-20T09:40:00;27.00;94.20
2897;DHT22;1458;49.728;9.228;2023-08-20T09:42:31;27.00;95.60
2897;DHT22;1458;49.728;9.228;2023-08-20T09:45:02;27.00;93.20
2897;DHT22;1458;49.728;9.228;2023-08-20T09:47:34;26.80;92.90
2897;DHT22;1458;49.728;9.228;2023-08-20T09:50:05;26.80;94.50
2897;DHT22;1458;49.728;9.228;2023-08-20T09:52:39;26.90;94.30
2897;DHT22;1458;49.728;9.228;2023-08-20T09:55:16;27.10;96.60
2897;DHT22;1458;49.728;9.228;2023-08-20T09:57:44;27.20;95.50
2897;DHT22;1458;49.728;9.228;2023-08-20T10:00:16;27.10;93.80
2897;DHT22;1458;49.728;9.228;2023-08-20T10:02:45;27.10;92.80
2897;DHT22;1458;49.728;9.228;2023-08-20T10:05:12;27.10;92.40
2897;DHT22;1458;49.728;9.228;2023-08-20T10:07:42;27.20;94.00
2897;DHT22;1458;49.728;9.228;2023-08-20T10:10:10;27.10;92.50
2897;DHT22;1458;49.728;9.228;2023-08-20T10:12:40;27.10;92.00
2897;DHT22;1458;49.728;9.228;2023-08-20T10:15:10;27.10;93.00
2897;DHT22;1458;49.728;9.228;2023-08-20T10:17:42;27.30;95.00
2897;DHT22;1458;49.728;9.228;2023-08-20T10:20:13;27.50;93.70
2897;DHT22;1458;49.728;9.228;2023-08-20T10:22:43;27.40;92.70
2897;DHT22;1458;49.728;9.228;2023-08-20T10:25:12;27.50;93.10
2897;DHT22;1458;49.728;9.228;2023-08-20T10:27:43;27.50;91.80
2897;DHT22;1458;49.728;9.228;2023-08-20T10:30:16;27.40;92.70
2897;DHT22;1458;49.728;9.228;2023-08-20T10:32:51;27.60;93.70
2897;DHT22;1458;49.728;9.228;2023-08-20T10:35:23;27.60;87.80
2897;DHT22;1458;49.728;9.228;2023-08-20T10:38:04;27.80;92.10
2897;DHT22;1458;49.728;9.228;2023-08-20T10:40:48;27.80;86.50
2897;DHT22;1458;49.728;9.228;2023-08-20T10:43:27;27.80;84.90
2897;DHT22;1458;49.728;9.228;2023-08-20T10:46:05;27.80;82.90
2897;DHT22;1458;49.728;9.228;2023-08-20T10:48:36;27.70;82.80
2897;DHT22;1458;49.728;9.228;2023-08-20T10:51:09;27.80;81.50
2897;DHT22;1458;49.728;9.228;2023-08-20T10:53:39;27.80;82.10
2897;DHT22;1458;49.728;9.228;2023-08-20T10:56:11;27.70;81.00
2897;DHT22;1458;49.728;9.228;2023-08-20T10:58:45;27.90;82.30
2897;DHT22;1458;49.728;9.228;2023-08-20T11:01:15;28.10;78.20
2897;DHT22;1458;49.728;9.228;2023-08-20T11:03:45;28.30;84.20
2897;DHT22;1458;49.728;9.228;2023-08-20T11:06:14;28.40;82.80
2897;DHT22;1458;49.728;9.228;2023-08-20T11:08:44;28.40;78.10
2897;DHT22;1458;49.728;9.228;2023-08-20T11:11:11;28.30;78.90
2897;DHT22;1458;49.728;9.228;2023-08-20T11:13:40;28.40;76.20
2897;DHT22;1458;49.728;9.228;2023-08-20T11:16:08;28.50;75.40
2897;DHT22;1458;49.728;9.228;2023-08-20T11:18:36;28.50;75.70
2897;DHT22;1458;49.728;9.228;2023-08-20T11:21:06;28.40;74.50
2897;DHT22;1458;49.728;9.228;2023-08-20T11:23:35;28.30;75.40
2897;DHT22;1458;49.728;9.228;2023-08-20T11:26:05;28.50;77.80
2897;DHT22;1458;49.728;9.228;2023-08-20T11:28:34;28.50;76.90
2897;DHT22;1458;49.728;9.228;2023-08-20T11:31:02;28.60;77.90
2897;DHT22;1458;49.728;9.228;2023-08-20T11:33:29;28.70;78.60
2897;DHT22;1458;49.728;9.228;2023-08-20T11:35:56;28.70;75.90
2897;DHT22;1458;49.728;9.228;2023-08-20T11:38:26;28.70;73.90
2897;DHT22;1458;49.728;9.228;2023-08-20T11:40:53;28.70;75.00
2897;DHT22;1458;49.728;9.228;2023-08-20T11:43:22;28.60;73.80
2897;DHT22;1458;49.728;9.228;2023-08-20T11:45:49;28.90;76.60
2897;DHT22;1458;49.728;9.228;2023-08-20T11:48:19;28.90;72.00
2897;DHT22;1458;49.728;9.228;2023-08-20T11:50:47;28.90;68.90
2897;DHT22;1458;49.728;9.228;2023-08-20T11:53:15;28.80;71.50
2897;DHT22;1458;49.728;9.228;2023-08-20T11:55:44;28.90;73.30
2897;DHT22;1458;49.728;9.228;2023-08-20T11:58:12;29.10;70.50
2897;DHT22;1458;49.728;9.228;2023-08-20T12:00:40;29.00;70.70
2897;DHT22;1458;49.728;9.228;2023-08-20T12:03:09;29.10;69.30
2897;DHT22;1458;49.728;9.228;2023-08-20T12:05:40;29.10;66.60
2897;DHT22;1458;49.728;9.228;2023-08-20T12:08:08;29.00;67.50
2897;DHT22;1458;49.728;9.228;2023-08-20T12:10:35;29.00;73.10
2897;DHT22;1458;49.728;9.228;2023-08-20T12:13:10;29.10;68.30
2897;DHT22;1458;49.728;9.228;2023-08-20T12:15:38;29.20;67.40
2897;DHT22;1458;49.728;9.228;2023-08-20T12:18:05;29.40;68.50
2897;DHT22;1458;49.728;9.228;2023-08-20T12:20:35;29.40;65.20
2897;DHT22;1458;49.728;9.228;2023-08-20T12:23:04;29.50;65.30
2897;DHT22;1458;49.728;9.228;2023-08-20T12:25:33;29.50;60.30
2897;DHT22;1458;49.728;9.228;2023-08-20T12:28:01;29.50;61.60
2897;DHT22;1458;49.728;9.228;2023-08-20T12:30:31;29.60;62.00
2897;DHT22;1458;49.728;9.228;2023-08-20T12:32:59;29.50;61.30
2897;DHT22;1458;49.728;9.228;2023-08-20T12:35:28;29.40;58.50
2897;DHT22;1458;49.728;9.228;2023-08-20T12:37:55;29.40;65.70
2897;DHT22;1458;49.728;9.228;2023-08-20T12:40:23;29.20;60.30
2897;DHT22;1458;49.728;9.228;2023-08-20T12:42:50;29.30;61.30
2897;DHT22;1458;49.728;9.228;2023-08-20T12:45:17;29.20;59.80
2897;DHT22;1458;49.728;9.228;2023-08-20T12:47:46;29.30;61.50
2897;DHT22;1458;49.728;9.228;2023-08-20T12:50:14;29.50;64.50
2897;DHT22;1458;49.728;9.228;2023-08-20T12:52:41;29.60;65.70
2897;DHT22;1458;49.728;9.228;2023-08-20T12:55:09;29.50;58.90
2897;DHT22;1458;49.728;9.228;2023-08-20T12:57:36;29.50;55.20
2897;DHT22;1458;49.728;9.228;2023-08-20T13:00:05;29.40;59.20
2897;DHT22;1458;49.728;9.228;2023-08-20T13:02:38;29.60;60.00
2897;DHT22;1458;49.728;9.228;2023-08-20T13:05:09;29.90;54.80
2897;DHT22;1458;49.728;9.228;2023-08-20T13:07:37;29.70;57.10
2897;DHT22;1458;49.728;9.228;2023-08-20T13:10:06;29.60;52.90
2897;DHT22;1458;49.728;9.228;2023-08-20T13:12:35;29.70;50.70
2897;DHT22;1458;49.728;9.228;2023-08-20T13:15:04;29.50;48.90
2897;DHT22;1458;49.728;9.228;2023-08-20T13:17:33;29.60;51.50
2897;DHT22;1458;49.728;9.228;2023-08-20T13:20:01;29.50;56.90
2897;DHT22;1458;49.728;9.228;2023-08-20T13:22:32;29.50;55.20
2897;DHT22;1458;49.728;9.228;2023-08-20T13:25:00;29.50;59.80
2897;DHT22;1458;49.728;9.228;2023-08-20T13:27:27;29.40;52.80
2897;DHT22;1458;49.728;9.228;2023-08-20T13:29:54;29.50;55.20
2897;DHT22;1458;49.728;9.228;2023-08-20T13:32:22;29.50;53.80
2897;DHT22;1458;49.728;9.228;2023-08-20T13:34:49;29.60;52.50
2897;DHT22;1458;49.728;9.228;2023-08-20T13:37:17;29.70;49.30
2897;DHT22;1458;49.728;9.228;2023-08-20T13:39:46;29.60;47.50
2897;DHT22;1458;49.728;9.228;2023-08-20T13:42:13;29.60;50.60
2897;DHT22;1458;49.728;9.228;2023-08-20T13:44:41;29.70;48.70
2897;DHT22;1458;49.728;9.228;2023-08-20T13:47:09;29.50;47.20
2897;DHT22;1458;49.728;9.228;2023-08-20T13:49:36;29.40;48.30
2897;DHT22;1458;49.728;9.228;2023-08-20T13:52:04;29.50;48.30
2897;DHT22;1458;49.728;9.228;2023-08-20T13:54:32;29.60;46.80
2897;DHT22;1458;49.728;9.228;2023-08-20T13:57:01;29.60;46.80
2897;DHT22;1458;49.728;9.228;2023-08-20T13:59:29;29.70;47.20
2897;DHT22;1458;49.728;9.228;2023-08-20T14:01:57;29.90;43.20
2897;DHT22;1458;49.728;9.228;2023-08-20T14:04:25;30.00;46.00
2897;DHT22;1458;49.728;9.228;2023-08-20T14:06:53;29.90;44.30
2897;DHT22;1458;49.728;9.228;2023-08-20T14:09:20;29.80;42.90
2897;DHT22;1458;49.728;9.228;2023-08-20T14:11:48;29.70;44.90
2897;DHT22;1458;49.728;9.228;2023-08-20T14:14:16;29.70;43.10
2897;DHT22;1458;49.728;9.228;2023-08-20T14:16:44;29.70;45.10
2897;DHT22;1458;49.728;9.228;2023-08-20T14:19:11;29.90;43.50
2897;DHT22;1458;49.728;9.228;2023-08-20T14:21:39;30.00;44.50
2897;DHT22;1458;49.728;9.228;2023-08-20T14:24:06;29.80;43.20
2897;DHT22;1458;49.728;9.228;2023-08-20T14:26:34;29.90;43.00
2897;DHT22;1458;49.728;9.228;2023-08-20T14:29:02;29.70;47.00
2897;DHT22;1458;49.728;9.228;2023-08-20T14:31:31;29.80;44.20
2897;DHT22;1458;49.728;9.228;2023-08-20T14:33:58;29.70;40.90
2897;DHT22;1458;49.728;9.228;2023-08-20T14:36:25;29.90;41.10
2897;DHT22;1458;49.728;9.228;2023-08-20T14:38:53;29.90;41.00
2897;DHT22;1458;49.728;9.228;2023-08-20T14:41:20;29.90;41.00
2897;DHT22;1458;49.728;9.228;2023-08-20T14:46:22;30.00;44.50
2897;DHT22;1458;49.728;9.228;2023-08-20T14:48:52;30.10;44.90
2897;DHT22;1458;49.728;9.228;2023-08-20T14:51:21;30.20;43.30
2897;DHT22;1458;49.728;9.228;2023-08-20T14:53:48;30.30;42.90
2897;DHT22;1458;49.728;9.228;2023-08-20T14:56:16;30.30;40.50
2897;DHT22;1458;49.728;9.228;2023-08-20T14:58:43;30.20;41.10
2897;DHT22;1458;49.728;9.228;2023-08-20T15:01:10;30.10;41.30
2897;DHT22;1458;49.728;9.228;2023-08-20T15:03:38;30.00;41.20
2897;DHT22;1458;49.728;9.228;2023-08-20T15:06:07;30.00;39.40
2897;DHT22;1458;49.728;9.228;2023-08-20T15:08:34;29.90;42.10
2897;DHT22;1458;49.728;9.228;2023-08-20T15:11:02;30.00;40.10
2897;DHT22;1458;49.728;9.228;2023-08-20T15:13:30;29.90;41.00
2897;DHT22;1458;49.728;9.228;2023-08-20T15:15:58;29.90;41.00
2897;DHT22;1458;49.728;9.228;2023-08-20T15:18:25;29.80;42.00
2897;DHT22;1458;49.728;9.228;2023-08-20T15:20:54;29.90;39.60
2897;DHT22;1458;49.728;9.228;2023-08-20T15:23:24;29.90;39.40
2897;DHT22;1458;49.728;9.228;2023-08-20T15:25:54;29.70;40.90
2897;DHT22;1458;49.728;9.228;2023-08-20T15:28:23;29.80;41.00
2897;DHT22;1458;49.728;9.228;2023-08-20T15:30:51;29.80;40.90
2897;DHT22;1458;49.728;9.228;2023-08-20T15:33:19;29.80;41.00
2897;DHT22;1458;49.728;9.228;2023-08-20T15:35:47;29.80;40.90
2897;DHT22;1458;49.728;9.228;2023-08-20T15:38:14;29.80;40.90
2897;DHT22;1458;49.728;9.228;2023-08-20T15:40:43;29.70;42.40
2897;DHT22;1458;49.728;9.228;2023-08-20T15:43:11;29.70;39.60
2897;DHT22;1458;49.728;9.228;2023-08-20T15:45:38;29.80;42.70
2897;DHT22;1458;49.728;9.228;2023-08-20T15:48:07;29.60;42.30
2897;DHT22;1458;49.728;9.228;2023-08-20T15:50:34;29.60;41.40
2897;DHT22;1458;49.728;9.228;2023-08-20T15:53:02;29.50;42.90
2897;DHT22;1458;49.728;9.228;2023-08-20T15:55:29;29.70;43.70
2897;DHT22;1458;49.728;9.228;2023-08-20T15:57:58;29.80;42.00
2897;DHT22;1458;49.728;9.228;2023-08-20T16:00:26;29.80;42.10
2897;DHT22;1458;49.728;9.228;2023-08-20T16:02:55;29.70;42.10
2897;DHT22;1458;49.728;9.228;2023-08-20T16:05:22;29.80;42.20
2897;DHT22;1458;49.728;9.228;2023-08-20T16:07:50;29.80;41.40
2897;DHT22;1458;49.728;9.228;2023-08-20T16:10:17;29.70;41.70
2897;DHT22;1458;49.728;9.228;2023-08-20T16:12:44;29.60;40.80